Aviation Digital Data Service (ADDS)

Output produced by TAFs form (0827 UTC 24 September 2017)
found at http://aviationweather.gov/adds/tafs/
 
KTEX 240524Z 2406/2506 15004KT P6SM SKC 
     FM241800 18010G19KT P6SM FEW070 FEW150 
     FM242000 21011G20KT P6SM FEW070 SCT140 
     FM250300 16004KT P6SM SKC